Time;durP1;ratioP1;P1;durP2;ratioP2;P2;SDS_P1;SDS_P2;PMS_P1;PMS_P2;Temp;Humidity;BMP_temperature;BMP_pressure;BME280_temperature;BME280_humidity;BME280_pressure;Samples;Min_cycle;Max_cycle;Signal;HPM_P1;HPM_P2
2022/12/25 00:01:07;;;;;;;7.82;3.55;;;;;;;-4.27;71.89;101740.66;4997502;28;20046;-70
2022/12/25 00:03:34;;;;;;;7.93;3.53;;;;;;;-4.25;71.77;101741.63;5005212;28;20046;-70
2022/12/25 00:06:00;;;;;;;8.55;2.35;;;;;;;-4.23;71.44;101736.63;5002424;28;20597;-70
2022/12/25 00:08:29;;;;;;;6.20;2.55;;;;;;;-4.21;71.80;101740.13;5000512;28;20046;-70
2022/12/25 00:11:00;;;;;;;4.82;2.28;;;;;;;-4.19;71.23;101747.09;5001661;28;20129;-70
2022/12/25 00:13:27;;;;;;;4.72;2.35;;;;;;;-4.18;71.72;101745.44;5003339;28;20054;-70
2022/12/25 00:15:54;;;;;;;5.70;2.75;;;;;;;-4.16;71.69;101747.25;5002609;28;20058;-70
2022/12/25 00:18:21;;;;;;;5.82;2.55;;;;;;;-4.14;71.39;101755.00;5004202;28;20413;-70
2022/12/25 00:20:57;;;;;;;5.22;2.35;;;;;;;-4.14;71.47;101744.81;5004665;28;20050;-70
2022/12/25 00:23:23;;;;;;;;;;;;;;;-4.11;71.44;101752.63;5002263;28;20065;-70
2022/12/25 00:25:52;;;;;;;4.40;1.70;;;;;;;-4.10;71.39;101754.38;5000327;28;19922;-71
2022/12/25 00:28:19;;;;;;;3.03;1.63;;;;;;;-4.13;71.16;101754.19;5003039;28;20047;-70
2022/12/25 00:30:47;;;;;;;5.40;1.50;;;;;;;-4.08;71.26;101755.34;4999869;28;20056;-69
2022/12/25 00:33:14;;;;;;;3.00;1.73;;;;;;;-4.08;71.62;101763.00;5001480;28;20061;-70
2022/12/25 00:35:40;;;;;;;5.18;2.20;;;;;;;-4.08;71.45;101763.88;5002558;28;20720;-70
2022/12/25 00:38:07;;;;;;;4.28;1.98;;;;;;;-4.06;71.57;101766.53;5004260;28;20060;-70
2022/12/25 00:40:34;;;;;;;3.15;1.60;;;;;;;-4.09;71.38;101771.47;4998557;28;20046;-70
2022/12/25 00:43:02;;;;;;;5.53;1.70;;;;;;;-4.06;71.60;101774.19;5002400;28;20072;-70
2022/12/25 00:45:29;;;;;;;6.13;1.83;;;;;;;-4.04;71.60;101776.81;5001564;28;20050;-70
2022/12/25 00:47:56;;;;;;;3.03;1.73;;;;;;;-4.03;71.13;101776.03;5003260;28;20089;-70
2022/12/25 00:50:23;;;;;;;2.63;1.30;;;;;;;-4.03;71.35;101782.03;5004553;28;20054;-70
2022/12/25 00:52:50;;;;;;;3.60;1.75;;;;;;;-4.04;71.40;101780.28;5003517;28;20056;-70
2022/12/25 00:55:17;;;;;;;4.32;2.22;;;;;;;-4.03;71.22;101774.38;4996929;28;20054;-70
2022/12/25 00:57:44;;;;;;;3.65;1.38;;;;;;;-4.02;71.09;101772.69;5001574;28;20127;-70
2022/12/25 01:00:13;;;;;;;2.70;1.42;;;;;;;-4.03;71.07;101774.38;5000575;28;20046;-70
2022/12/25 01:02:40;;;;;;;3.85;1.52;;;;;;;-4.02;71.29;101772.69;5002350;28;20046;-70
2022/12/25 01:05:08;;;;;;;3.97;1.67;;;;;;;-4.02;71.45;101767.56;5003611;28;20050;-69
2022/12/25 01:07:35;;;;;;;2.13;1.00;;;;;;;-4.10;71.32;101759.47;4994702;28;20165;-70
2022/12/25 01:12:46;;;;;;;3.85;1.88;;;;;;;-4.01;71.18;101776.97;5001534;28;20120;-70
2022/12/25 01:15:14;;;;;;;2.03;0.98;;;;;;;-4.02;71.24;101776.09;5003819;28;20142;-69
2022/12/25 01:17:42;;;;;;;3.13;1.50;;;;;;;-4.02;71.27;101783.75;4998153;28;20073;-70
2022/12/25 01:20:10;;;;;;;3.78;1.50;;;;;;;-4.00;71.25;101787.28;5000092;28;20502;-70
2022/12/25 01:22:37;;;;;;;2.67;1.33;;;;;;;-3.98;71.34;101789.94;5001571;28;20104;-70
2022/12/25 01:25:05;;;;;;;1.90;1.50;;;;;;;-4.00;70.89;101787.28;4999747;28;20054;-70
2022/12/25 01:27:32;;;;;;;3.78;1.90;;;;;;;-3.99;71.07;101781.38;5002764;28;20046;-70
2022/12/25 01:29:59;;;;;;;2.83;1.40;;;;;;;-3.97;71.07;101792.56;5004861;28;20064;-70
2022/12/25 01:32:27;;;;;;;3.88;2.28;;;;;;;-3.95;71.15;101791.00;4998728;28;20467;-70
2022/12/25 01:34:54;;;;;;;4.22;1.92;;;;;;;-3.96;71.22;101789.22;5002399;28;20173;-70
2022/12/25 01:37:21;;;;;;;3.08;1.20;;;;;;;-3.92;71.16;101792.84;4999281;28;20062;-70
2022/12/25 01:39:48;;;;;;;3.47;1.42;;;;;;;-3.93;71.15;101794.53;4998243;28;20050;-70
2022/12/25 01:42:17;;;;;;;4.03;1.52;;;;;;;-3.92;71.61;101796.25;4999396;28;20524;-70
2022/12/25 01:45:20;;;;;;;4.00;1.45;;;;;;;-3.90;71.27;101788.69;5002972;28;20042;-70
2022/12/25 01:47:48;;;;;;;2.33;1.17;;;;;;;-3.91;71.40;101792.91;5002548;28;20052;-70
2022/12/25 01:50:16;;;;;;;2.70;1.20;;;;;;;-3.89;71.28;101796.44;5000069;28;20042;-70
2022/12/25 01:52:43;;;;;;;3.13;1.45;;;;;;;-3.89;71.02;101791.34;5003517;28;20068;-70
2022/12/25 01:55:11;;;;;;;2.67;1.30;;;;;;;-3.88;71.66;101795.63;5001900;28;20043;-70
2022/12/25 01:57:39;;;;;;;3.35;1.30;;;;;;;-3.90;71.17;101794.69;5000286;28;20555;-70
2022/12/25 02:00:08;;;;;;;3.70;1.45;;;;;;;-3.85;71.44;101803.47;4999524;28;20065;-70
2022/12/25 02:02:36;;;;;;;3.47;1.05;;;;;;;-3.83;71.11;101801.00;5003160;28;20042;-70
2022/12/25 02:05:08;;;;;;;4.88;1.38;;;;;;;-3.82;71.78;101796.78;5002408;28;20049;-70
2022/12/25 02:07:37;;;;;;;3.03;1.23;;;;;;;-3.80;71.73;101798.63;5000737;28;20129;-70
2022/12/25 02:10:04;;;;;;;2.15;1.30;;;;;;;-3.80;71.49;101790.09;4998037;28;20050;-70
2022/12/25 02:12:34;;;;;;;2.30;0.90;;;;;;;-3.79;71.61;101794.38;5001558;28;20519;-70
2022/12/25 02:15:04;;;;;;;3.03;1.48;;;;;;;-3.76;71.95;101792.00;5001973;28;20112;-70
2022/12/25 02:17:36;;;;;;;2.00;1.35;;;;;;;-3.75;71.31;101798.91;5000728;28;20132;-70
2022/12/25 02:20:47;;;;;;;4.55;1.85;;;;;;;-3.73;71.70;101803.28;5000571;28;20041;-70
2022/12/25 02:23:44;;;;;;;3.95;1.42;;;;;;;-3.79;71.32;101790.16;4987559;28;20042;-70
2022/12/25 02:26:21;;;;;;;1.98;1.38;;;;;;;-3.71;71.43;101800.81;5002424;28;20512;-70
2022/12/25 02:28:56;;;;;;;2.65;1.45;;;;;;;-3.69;71.51;101795.00;5001850;28;20047;-70
2022/12/25 02:31:29;;;;;;;1.90;1.15;;;;;;;-3.68;71.52;101795.88;5002891;28;20050;-70
2022/12/25 02:34:02;;;;;;;2.60;1.10;;;;;;;-3.67;71.59;101795.06;4999751;28;20050;-70
2022/12/25 02:36:36;;;;;;;2.13;1.15;;;;;;;-3.65;71.90;101796.03;5001394;28;20052;-70
2022/12/25 02:41:54;;;;;;;4.55;1.52;;;;;;;-3.62;71.51;101801.31;5002203;28;20053;-70
2022/12/25 03:07:03;;;;;;;1.55;1.10;;;;;;;-3.46;71.75;101801.38;5007565;28;20052;-69
2022/12/25 03:12:29;;;;;;;2.05;0.85;;;;;;;-3.42;71.93;101803.28;5004287;28;20056;-70
2022/12/25 03:17:42;;;;;;;2.25;1.27;;;;;;;-3.38;71.81;101811.13;5004747;28;20053;-70
2022/12/25 03:28:25;;;;;;;1.90;1.20;;;;;;;-3.36;71.77;101812.94;5005774;28;20567;-70
2022/12/25 03:31:12;;;;;;;2.13;1.15;;;;;;;-3.34;71.79;101806.25;5003111;28;20498;-70
2022/12/25 03:37:10;;;;;;;6.43;1.20;;;;;;;-3.33;71.70;101819.91;5001034;28;20189;-70
2022/12/25 04:38:01;;;;;;;2.90;0.80;;;;;;;-3.04;72.15;101840.28;5001211;28;20110;-71
2022/12/25 04:40:29;;;;;;;1.75;0.57;;;;;;;-3.01;71.83;101839.56;5004100;28;20046;-71
2022/12/25 04:42:56;;;;;;;0.82;0.70;;;;;;;-3.00;71.78;101844.72;5004795;28;20144;-71
2022/12/25 04:45:23;;;;;;;0.60;0.60;;;;;;;-3.00;71.96;101847.28;5002414;28;20100;-71
2022/12/25 04:47:50;;;;;;;2.42;0.82;;;;;;;-2.97;71.85;101849.13;5003191;28;20415;-72
2022/12/25 04:50:17;;;;;;;2.25;0.60;;;;;;;-2.97;71.63;101841.47;5003941;28;20056;-71
2022/12/25 04:52:44;;;;;;;3.47;0.70;;;;;;;-2.97;71.86;101847.44;5000620;28;20422;-71
2022/12/25 04:55:11;;;;;;;1.77;0.70;;;;;;;-2.97;72.08;101850.00;5000299;28;20125;-72
2022/12/25 04:57:40;;;;;;;1.13;0.60;;;;;;;-2.95;71.82;101861.22;5003084;28;20046;-71
2022/12/25 05:00:08;;;;;;;0.77;0.57;;;;;;;-2.91;71.70;101861.38;5004201;28;20042;-72
2022/12/25 05:02:35;;;;;;;2.22;0.60;;;;;;;-2.94;71.70;101852.72;5002415;28;20050;-71
2022/12/25 05:05:02;;;;;;;0.65;0.57;;;;;;;-2.94;71.63;101847.63;5002546;28;20400;-71
2022/12/25 05:07:29;;;;;;;3.03;0.85;;;;;;;-2.93;71.75;101851.06;4999251;28;20052;-72
2022/12/25 05:09:55;;;;;;;1.05;0.80;;;;;;;-2.91;71.70;101856.25;4997986;28;20057;-71
2022/12/25 05:12:22;;;;;;;0.90;0.70;;;;;;;-2.91;71.72;101849.47;4999124;28;20707;-71
2022/12/25 05:14:50;;;;;;;1.67;0.70;;;;;;;-2.90;71.84;101855.44;5007654;28;20536;-72
2022/12/25 05:17:17;;;;;;;1.95;0.65;;;;;;;-2.92;71.63;101849.41;4998547;28;20133;-72
2022/12/25 05:19:44;;;;;;;0.77;0.55;;;;;;;-2.92;71.69;101854.50;5003920;28;20056;-71
2022/12/25 05:22:11;;;;;;;1.10;0.63;;;;;;;-2.91;71.75;101861.38;4998230;28;20502;-71
2022/12/25 05:24:38;;;;;;;3.40;0.80;;;;;;;-2.92;71.59;101862.19;5002053;28;20495;-72
2022/12/25 05:27:05;;;;;;;2.47;0.70;;;;;;;-2.94;71.74;101862.94;5002649;28;20056;-71
2022/12/25 05:29:32;;;;;;;1.15;0.80;;;;;;;-2.91;71.74;101866.47;5000981;28;20064;-71
2022/12/25 05:32:00;;;;;;;1.25;0.73;;;;;;;-2.93;71.58;101868.97;5002560;28;20050;-71
2022/12/25 05:34:27;;;;;;;1.05;0.55;;;;;;;-2.92;71.46;101877.53;5002362;28;20054;-71
2022/12/25 05:36:55;;;;;;;1.77;1.00;;;;;;;-2.93;71.65;101876.66;5000646;28;20106;-71
2022/12/25 05:39:22;;;;;;;2.72;1.15;;;;;;;-2.93;72.00;101876.66;5001389;28;20053;-72
2022/12/25 05:41:49;;;;;;;1.58;0.88;;;;;;;-2.95;71.68;101880.78;4997463;28;20053;-71
2022/12/25 05:44:15;;;;;;;1.10;0.80;;;;;;;-2.93;71.74;101884.31;5000224;28;20133;-71
2022/12/25 05:46:42;;;;;;;1.80;1.70;;;;;;;-2.95;71.76;101883.34;5002640;28;20046;-71
2022/12/25 05:49:11;;;;;;;3.15;0.90;;;;;;;-2.94;71.75;101891.06;5002369;28;20041;-71
2022/12/25 05:51:37;;;;;;;1.05;0.63;;;;;;;-2.94;71.70;101891.06;4999723;28;20042;-71
2022/12/25 05:54:04;;;;;;;0.98;0.88;;;;;;;-2.95;71.70;101891.00;5000381;28;20052;-72
2022/12/25 05:56:31;;;;;;;1.83;0.73;;;;;;;-2.97;71.43;101898.59;5000629;28;20045;-71
2022/12/25 05:58:58;;;;;;;0.90;0.65;;;;;;;-2.95;71.57;101896.13;5004776;28;20054;-71
2022/12/25 06:01:28;;;;;;;0.70;0.70;;;;;;;-2.94;71.86;101895.31;5003034;28;20053;-71
2022/12/25 06:03:55;;;;;;;2.47;0.98;;;;;;;-2.95;71.67;101901.25;4999144;28;20060;-72
2022/12/25 06:06:23;;;;;;;1.15;0.88;;;;;;;-2.93;71.59;101915.00;5002958;28;20053;-72
2022/12/25 06:08:50;;;;;;;2.05;0.60;;;;;;;-2.94;71.61;101911.53;5003046;28;20413;-72
2022/12/25 06:11:17;;;;;;;2.15;1.00;;;;;;;-2.94;71.68;101908.97;4997832;28;20064;-71
2022/12/25 06:13:44;;;;;;;2.20;1.05;;;;;;;-2.94;71.68;101905.53;4999270;28;20126;-71
2022/12/25 06:16:12;;;;;;;1.85;1.17;;;;;;;-2.95;71.76;101906.34;5000791;28;20049;-71
2022/12/25 06:18:40;;;;;;;1.67;0.80;;;;;;;-2.92;71.82;101913.31;4997777;28;20057;-71
2022/12/25 06:21:08;;;;;;;1.85;0.88;;;;;;;-2.92;71.69;101910.75;5003174;28;20045;-71
2022/12/25 06:23:37;;;;;;;1.45;0.80;;;;;;;-2.92;71.62;101920.97;5000075;28;20057;-71
2022/12/25 06:26:05;;;;;;;0.73;0.50;;;;;;;-2.96;71.47;101918.25;5000884;28;20046;-73
2022/12/25 06:28:32;;;;;;;2.17;0.80;;;;;;;-2.92;71.87;101937.19;5003720;28;20046;-71
2022/12/25 06:30:59;;;;;;;1.20;0.80;;;;;;;-2.94;71.58;101928.56;5002600;28;20101;-71
2022/12/25 06:33:26;;;;;;;1.20;1.02;;;;;;;-2.92;71.86;101931.22;5004313;28;20125;-71
2022/12/25 06:35:53;;;;;;;1.70;0.70;;;;;;;-2.91;72.07;101940.63;5001487;28;20070;-71
2022/12/25 06:38:19;;;;;;;1.50;0.70;;;;;;;-2.93;71.66;101935.44;5001046;28;20125;-71
2022/12/25 06:40:48;;;;;;;2.10;0.88;;;;;;;-2.91;71.63;101945.75;5005164;28;20068;-71
2022/12/25 06:43:15;;;;;;;1.15;0.77;;;;;;;-2.92;71.65;101944.88;5004560;28;20074;-71
2022/12/25 06:45:41;;;;;;;0.82;0.68;;;;;;;-2.92;71.73;101949.97;5005844;28;20056;-71
2022/12/25 06:48:08;;;;;;;1.52;1.00;;;;;;;-2.91;71.65;101949.16;5003880;28;20045;-72
2022/12/25 06:50:35;;;;;;;1.67;0.80;;;;;;;-2.89;71.43;101956.94;5005768;28;20049;-71
2022/12/25 06:53:02;;;;;;;4.40;0.73;;;;;;;-2.90;71.48;101950.03;5004024;28;20050;-72
2022/12/25 06:55:29;;;;;;;1.05;0.80;;;;;;;-2.90;71.85;101942.38;5006310;28;20054;-71
2022/12/25 06:57:57;;;;;;;2.65;1.05;;;;;;;-2.91;71.54;101948.28;5005704;28;20135;-72
2022/12/25 07:00:24;;;;;;;1.88;1.33;;;;;;;-2.89;71.78;101950.16;5007168;28;20054;-71
2022/12/25 07:02:51;;;;;;;2.25;1.10;;;;;;;-2.88;71.51;101953.56;5004284;28;20049;-72
2022/12/25 07:05:18;;;;;;;1.25;0.82;;;;;;;-2.88;71.41;101957.00;5003355;28;20057;-71
2022/12/25 07:07:45;;;;;;;2.35;0.70;;;;;;;-2.87;71.64;101955.34;5005479;28;20050;-72
2022/12/25 07:10:12;;;;;;;0.70;0.70;;;;;;;-2.87;71.34;101960.47;4997088;28;20054;-72
2022/12/25 07:12:39;;;;;;;1.42;0.93;;;;;;;-2.85;71.54;101958.84;5005252;28;20042;-72
2022/12/25 07:15:09;;;;;;;1.85;0.82;;;;;;;-2.85;71.91;101961.41;5001845;28;20222;-72
2022/12/25 07:17:35;;;;;;;1.52;1.02;;;;;;;-2.85;71.54;101963.97;5003411;28;20570;-71
2022/12/25 07:20:02;;;;;;;0.93;0.60;;;;;;;-2.84;71.42;101965.75;5003938;28;20413;-71
2022/12/25 07:22:30;;;;;;;1.48;1.23;;;;;;;-2.85;71.09;101972.50;5004840;28;20050;-71
2022/12/25 07:24:56;;;;;;;2.58;0.93;;;;;;;-2.84;71.60;101968.31;5006775;28;20046;-72
2022/12/25 07:27:24;;;;;;;1.08;0.57;;;;;;;-2.85;71.63;101977.63;5001626;28;20038;-71
2022/12/25 07:29:50;;;;;;;2.90;1.00;;;;;;;-2.86;71.48;101977.56;5004450;28;20050;-71
2022/12/25 07:32:19;;;;;;;1.70;0.80;;;;;;;-2.87;71.33;101975.81;5004883;28;20054;-71
2022/12/25 07:34:46;;;;;;;2.20;1.02;;;;;;;-2.87;71.31;101973.25;5003514;28;20050;-71
2022/12/25 07:37:13;;;;;;;1.30;0.80;;;;;;;-2.87;71.33;101978.38;5005148;28;20061;-71
2022/12/25 07:39:40;;;;;;;2.28;0.50;;;;;;;-2.89;71.64;101977.38;5004748;28;20057;-71
2022/12/25 07:42:07;;;;;;;0.93;0.75;;;;;;;-2.87;71.15;101980.94;5003457;28;20065;-71
2022/12/25 07:44:34;;;;;;;1.00;0.80;;;;;;;-2.92;71.54;101972.97;5000246;28;20057;-71
2022/12/25 07:47:01;;;;;;;2.08;0.80;;;;;;;-2.89;71.39;101982.50;5002260;28;20049;-71
2022/12/25 07:49:29;;;;;;;1.50;0.82;;;;;;;-2.90;71.52;101990.94;5005262;28;20052;-71
2022/12/25 07:51:56;;;;;;;1.30;0.88;;;;;;;-2.92;71.17;101996.00;5004402;28;20054;-71
2022/12/25 07:54:23;;;;;;;1.85;0.95;;;;;;;-2.95;71.28;101996.69;5002402;28;20418;-72
2022/12/25 07:56:52;;;;;;;1.27;0.95;;;;;;;-2.95;71.27;102004.38;5003287;28;20042;-71
2022/12/25 07:59:19;;;;;;;1.40;0.90;;;;;;;-2.95;71.61;102003.50;5000753;28;20046;-71
2022/12/25 08:01:46;;;;;;;1.95;0.98;;;;;;;-2.96;71.46;102000.06;5005254;28;20042;-71
2022/12/25 08:04:13;;;;;;;1.85;1.08;;;;;;;-2.94;71.26;102003.56;5001797;28;20089;-71
2022/12/25 08:06:41;;;;;;;1.48;0.85;;;;;;;-2.95;71.25;102006.06;4996410;28;20140;-71
2022/12/25 08:09:10;;;;;;;0.90;0.70;;;;;;;-2.99;71.43;101991.31;5002041;28;20506;-71
2022/12/25 08:11:37;;;;;;;5.93;1.20;;;;;;;-2.99;71.10;101994.78;4999391;28;20409;-71
2022/12/25 08:14:05;;;;;;;3.03;1.25;;;;;;;-2.97;71.17;101994.84;5020213;28;20051;-71
2022/12/25 08:16:33;;;;;;;1.55;1.13;;;;;;;-2.98;71.12;102001.66;5024444;28;20137;-71
2022/12/25 08:18:59;;;;;;;11.18;7.32;;;;;;;-2.98;71.37;101993.97;5018763;28;20053;-71
2022/12/25 08:21:27;;;;;;;3.40;2.55;;;;;;;-2.98;71.42;102001.66;5016591;28;20041;-71
2022/12/25 08:23:55;;;;;;;7.13;4.38;;;;;;;-3.01;71.22;101991.25;5021515;28;20409;-71
2022/12/25 08:26:23;;;;;;;4.38;2.40;;;;;;;-2.99;71.17;101991.31;5023150;28;20088;-71
2022/12/25 08:28:51;;;;;;;3.33;1.23;;;;;;;-3.00;71.37;101993.00;5022105;28;20045;-71
2022/12/25 08:31:21;;;;;;;2.45;1.60;;;;;;;-2.97;71.26;101994.84;5023048;28;20143;-71
2022/12/25 08:33:49;;;;;;;3.13;1.48;;;;;;;-3.02;71.47;101997.13;5022930;28;20051;-72
2022/12/25 08:36:17;;;;;;;1.98;1.33;;;;;;;-2.98;71.27;102000.78;5022342;28;20516;-71
2022/12/25 08:38:44;;;;;;;1.92;1.15;;;;;;;-2.97;71.20;102000.84;5020887;28;20133;-71
2022/12/25 08:41:13;;;;;;;1.67;1.05;;;;;;;-2.98;71.03;101996.53;5024101;28;20057;-71
2022/12/25 08:43:40;;;;;;;1.00;0.90;;;;;;;-3.00;71.52;101998.13;5018741;28;20048;-71
2022/12/25 08:46:07;;;;;;;1.20;1.00;;;;;;;-2.99;71.08;102007.56;5021548;28;20593;-71
2022/12/25 08:48:35;;;;;;;1.83;1.30;;;;;;;-2.99;71.18;102010.13;5019218;28;20133;-71
2022/12/25 08:51:02;;;;;;;1.10;0.98;;;;;;;-3.00;71.14;102016.00;5022565;28;20141;-71
2022/12/25 08:53:30;;;;;;;2.67;1.58;;;;;;;-3.01;70.86;102019.38;5019287;28;20038;-71
2022/12/25 08:55:58;;;;;;;1.23;1.13;;;;;;;-3.00;71.40;102013.44;5020540;28;20092;-71
2022/12/25 08:58:27;;;;;;;1.92;1.67;;;;;;;-3.00;71.04;102021.13;5016938;28;20342;-71
2022/12/25 09:00:54;;;;;;;3.00;1.38;;;;;;;-3.00;71.19;102016.00;5020644;28;20128;-71
2022/12/25 09:03:21;;;;;;;2.78;1.33;;;;;;;-3.05;71.32;102002.09;5018235;28;20053;-71
2022/12/25 09:05:48;;;;;;;3.47;1.60;;;;;;;-3.14;71.15;101982.81;5024630;28;20049;-71
2022/12/25 09:08:14;;;;;;;2.70;1.50;;;;;;;-3.01;71.11;102001.47;5019806;28;20041;-73
2022/12/25 09:10:41;;;;;;;2.70;1.33;;;;;;;-3.01;71.27;102003.16;5024997;28;20060;-71
2022/12/25 09:13:09;;;;;;;4.53;1.70;;;;;;;-3.02;71.00;102002.25;5020372;28;20058;-71
2022/12/25 09:15:38;;;;;;;3.28;1.55;;;;;;;-3.01;71.01;101996.38;5020775;28;20564;-71
2022/12/25 09:18:05;;;;;;;2.08;1.10;;;;;;;-3.08;70.92;101984.03;5019277;28;20046;-71
2022/12/25 09:20:32;;;;;;;2.25;0.95;;;;;;;-3.05;71.01;101996.09;5023766;28;20042;-71
2022/12/25 09:22:59;;;;;;;1.30;1.20;;;;;;;-3.03;70.82;102002.19;5018016;28;20045;-71
2022/12/25 09:25:25;;;;;;;1.40;1.05;;;;;;;-3.05;70.76;102007.19;5025228;28;20041;-71
2022/12/25 09:27:52;;;;;;;1.50;1.20;;;;;;;-3.05;70.79;102016.53;5021679;28;20046;-71
2022/12/25 09:30:19;;;;;;;2.65;1.25;;;;;;;-3.08;70.59;102019.81;5021145;28;20045;-71
2022/12/25 09:32:48;;;;;;;4.00;1.55;;;;;;;-3.10;71.07;102016.31;5022169;28;20060;-71
2022/12/25 09:35:19;;;;;;;1.42;0.88;;;;;;;-3.09;70.77;102019.72;5021407;28;20144;-71
2022/12/25 09:37:46;;;;;;;2.40;1.30;;;;;;;-3.09;70.52;102022.28;5022761;28;20132;-72
2022/12/25 09:40:17;;;;;;;2.95;1.45;;;;;;;-3.10;70.60;102028.19;5020226;28;20051;-71
2022/12/25 09:42:45;;;;;;;1.42;0.98;;;;;;;-3.11;70.48;102024.75;5016700;28;20054;-71
2022/12/25 09:45:15;;;;;;;2.03;1.38;;;;;;;-3.12;70.55;102030.66;5020904;28;20473;-71
2022/12/25 09:47:45;;;;;;;1.80;1.15;;;;;;;-3.15;70.39;102027.94;5017680;28;20049;-71
2022/12/25 09:50:17;;;;;;;5.15;1.23;;;;;;;-3.15;70.86;102030.50;5018858;28;20128;-71
2022/12/25 09:52:50;;;;;;;1.98;1.40;;;;;;;-3.15;70.44;102027.06;5023938;28;20133;-72
2022/12/25 09:55:19;;;;;;;4.50;1.48;;;;;;;-3.17;70.54;102035.50;5023941;28;20122;-71
2022/12/25 09:57:50;;;;;;;1.77;1.23;;;;;;;-3.27;70.41;102019.56;5022424;28;20052;-71
2022/12/25 10:00:20;;;;;;;1.77;1.17;;;;;;;-3.17;70.66;102037.19;5016387;28;20050;-71
2022/12/25 10:03:09;;;;;;;1.35;0.95;;;;;;;-3.19;70.71;102025.97;5022521;28;20049;-71
2022/12/25 10:06:07;;;;;;;5.38;1.50;;;;;;;-3.19;70.39;102025.97;5024540;28;20092;-72
2022/12/25 10:08:49;;;;;;;2.03;1.10;;;;;;;-3.21;70.56;102028.47;5021728;28;20042;-71
2022/12/25 10:11:30;;;;;;;2.42;1.33;;;;;;;-3.27;70.70;102004.25;5025930;28;20129;-71
2022/12/25 10:14:12;;;;;;;3.13;1.52;;;;;;;-3.21;70.58;102019.91;5027392;28;20056;-71
2022/12/25 10:16:49;;;;;;;4.20;2.08;;;;;;;-3.22;70.58;102029.22;5026684;28;20061;-71
2022/12/25 10:19:34;;;;;;;6.22;2.63;;;;;;;-3.26;70.61;102011.09;5028703;28;20064;-71
2022/12/25 10:22:09;;;;;;;4.75;2.20;;;;;;;-3.24;70.43;102014.63;5029691;28;20056;-71
2022/12/25 10:24:40;;;;;;;3.95;2.03;;;;;;;-3.28;70.41;102010.13;5029400;28;20555;-71
2022/12/25 10:27:16;;;;;;;4.03;2.38;;;;;;;-3.28;70.64;102015.22;5026880;28;20053;-71
2022/12/25 10:29:45;;;;;;;3.25;1.73;;;;;;;-3.27;70.20;102020.44;5028159;28;20085;-72
2022/12/25 10:32:12;;;;;;;6.32;3.28;;;;;;;-3.28;70.55;102018.66;5027539;28;20054;-71
2022/12/25 10:34:41;;;;;;;4.32;2.47;;;;;;;-3.28;70.46;102018.66;5026475;28;20045;-71
2022/12/25 10:37:11;;;;;;;4.30;1.90;;;;;;;-3.33;70.74;102016.63;5027104;28;20453;-71
2022/12/25 10:39:39;;;;;;;7.80;2.70;;;;;;;-3.31;70.52;102018.50;5026540;28;20486;-71
2022/12/25 10:42:19;;;;;;;6.43;2.70;;;;;;;-3.50;70.46;101993.56;5029107;28;20058;-71
2022/12/25 10:44:56;;;;;;;4.78;2.08;;;;;;;-3.32;70.65;102026.09;5023755;28;20053;-71
2022/12/25 10:47:24;;;;;;;4.72;2.97;;;;;;;-3.32;70.60;102026.97;5024003;28;20068;-71
2022/12/25 10:49:51;;;;;;;5.85;2.47;;;;;;;-3.32;70.83;102032.06;5025364;28;20133;-71
2022/12/25 10:52:22;;;;;;;9.60;3.47;;;;;;;-3.33;70.63;102020.09;5028210;28;20053;-71
2022/12/25 10:54:49;;;;;;;9.80;4.35;;;;;;;-3.29;70.64;102033.94;5026866;28;20045;-71
2022/12/25 10:57:18;;;;;;;6.57;3.65;;;;;;;-3.27;70.70;102037.47;5023429;28;20551;-71
2022/12/25 10:59:47;;;;;;;7.70;4.32;;;;;;;-3.26;70.73;102039.22;5029589;28;20049;-71
2022/12/25 11:02:25;;;;;;;7.20;3.78;;;;;;;-3.26;70.76;102046.88;5027923;28;20060;-72
2022/12/25 11:05:01;;;;;;;8.18;3.95;;;;;;;-3.27;70.63;102035.78;5021002;28;20128;-71
2022/12/25 11:07:30;;;;;;;7.43;4.10;;;;;;;-3.27;70.66;102038.34;5022785;28;20049;-71
2022/12/25 11:10:01;;;;;;;8.77;4.40;;;;;;;-3.36;70.72;102013.91;5020750;28;20532;-71
2022/12/25 11:12:31;;;;;;;8.32;4.13;;;;;;;-3.25;70.95;102028.19;5029580;28;20051;-71
2022/12/25 11:15:01;;;;;;;6.47;3.25;;;;;;;-3.23;70.71;102036.81;5023659;28;20049;-71
2022/12/25 11:17:28;;;;;;;5.63;3.33;;;;;;;-3.22;70.68;102028.34;5019506;28;20402;-71
2022/12/25 11:19:56;;;;;;;5.63;3.13;;;;;;;-3.21;70.79;102033.56;5024063;28;20141;-71
2022/12/25 11:22:24;;;;;;;4.90;3.00;;;;;;;-3.20;70.71;102037.88;5027506;28;20047;-71
2022/12/25 11:24:53;;;;;;;5.55;3.03;;;;;;;-3.18;71.07;102036.31;5020855;28;20077;-72
2022/12/25 11:27:26;;;;;;;5.20;2.90;;;;;;;-3.15;70.81;102034.72;5022166;28;20052;-71
2022/12/25 11:29:57;;;;;;;5.68;3.05;;;;;;;-3.15;70.65;102034.72;5024020;28;20053;-72
2022/12/25 11:32:29;;;;;;;4.00;2.80;;;;;;;-3.13;70.91;102028.91;5023442;28;20057;-71
2022/12/25 11:34:58;;;;;;;10.32;2.42;;;;;;;-3.12;71.07;102025.53;5025164;28;20053;-71
2022/12/25 11:37:30;;;;;;;5.65;2.67;;;;;;;-3.09;71.07;102027.41;5020736;28;20659;-71
2022/12/25 11:39:59;;;;;;;5.63;2.30;;;;;;;-3.10;71.07;102029.09;5021412;28;20060;-72
2022/12/25 11:42:32;;;;;;;6.22;2.67;;;;;;;-3.09;70.90;102028.28;5024219;28;20144;-71
2022/12/25 11:45:04;;;;;;;4.10;2.40;;;;;;;-3.05;71.22;102025.09;5025461;28;20052;-72
2022/12/25 11:47:37;;;;;;;4.28;2.47;;;;;;;-3.03;71.15;102020.06;5021123;28;20048;-71
2022/12/25 11:50:14;;;;;;;4.40;2.85;;;;;;;-3.04;71.03;102014.09;5021554;28;20159;-71
2022/12/25 11:52:44;;;;;;;8.05;2.42;;;;;;;-3.01;71.27;102013.38;5020760;28;20055;-71
2022/12/25 11:55:20;;;;;;;4.35;2.60;;;;;;;-2.99;71.22;102016.88;5025494;28;20386;-71
2022/12/25 11:57:53;;;;;;;3.88;2.20;;;;;;;-2.99;71.18;102015.22;5018948;28;20045;-71
2022/12/25 12:00:20;;;;;;;4.65;1.83;;;;;;;-2.97;71.15;102016.19;5022286;28;20132;-71
2022/12/25 12:02:54;;;;;;;5.13;2.22;;;;;;;-2.96;71.35;102023.06;5022605;28;20469;-72
2022/12/25 12:05:26;;;;;;;2.55;1.55;;;;;;;-2.97;71.04;102021.28;5022035;28;20047;-72
2022/12/25 12:07:58;;;;;;;3.97;2.28;;;;;;;-2.91;71.57;102030.09;5024855;28;20049;-71
2022/12/25 12:10:51;;;;;;;4.72;2.08;;;;;;;-2.90;71.33;102021.63;5020308;28;20046;-71
2022/12/25 12:13:32;;;;;;;4.35;2.13;;;;;;;-2.89;71.15;102028.53;5023465;28;20140;-71
2022/12/25 12:15:59;;;;;;;3.08;1.27;;;;;;;-2.88;70.95;102015.81;5023966;28;20523;-71
2022/12/25 12:18:31;;;;;;;3.38;1.70;;;;;;;-2.86;71.10;102013.34;5021365;28;20042;-72
2022/12/25 12:21:02;;;;;;;4.07;1.52;;;;;;;-2.85;71.16;102010.00;5021151;28;20058;-72
2022/12/25 12:23:33;;;;;;;4.78;1.50;;;;;;;-2.88;71.10;102010.69;5019208;28;20049;-71
2022/12/25 12:26:02;;;;;;;3.60;1.88;;;;;;;-2.84;71.10;102012.66;5022744;28;20195;-71
2022/12/25 12:28:37;;;;;;;2.95;1.33;;;;;;;-2.80;71.43;102023.91;5018629;28;20047;-72
2022/12/25 12:31:07;;;;;;;2.63;1.52;;;;;;;-2.82;71.36;102012.72;5020533;28;20046;-72
2022/12/25 12:33:39;;;;;;;2.22;0.90;;;;;;;-2.80;71.16;102018.81;5020891;28;20052;-71
2022/12/25 12:36:11;;;;;;;2.22;1.00;;;;;;;-2.81;71.16;102014.50;5019141;28;20429;-71
2022/12/25 12:38:40;;;;;;;4.70;1.25;;;;;;;-2.80;71.37;102014.56;5023691;28;20059;-71
2022/12/25 12:41:08;;;;;;;1.67;1.08;;;;;;;-2.79;71.49;102011.25;5019466;28;20064;-71
2022/12/25 12:43:39;;;;;;;4.25;0.93;;;;;;;-2.78;71.56;102017.22;5023128;28;20052;-71
2022/12/25 12:46:16;;;;;;;3.80;1.65;;;;;;;-2.77;71.58;102008.75;5021703;28;20133;-71
2022/12/25 12:48:45;;;;;;;1.73;0.68;;;;;;;-2.79;71.39;102000.09;5017492;28;20113;-71
2022/12/25 12:51:14;;;;;;;1.63;1.20;;;;;;;-2.79;71.57;101994.97;5022819;28;20046;-71
2022/12/25 12:53:42;;;;;;;1.83;0.68;;;;;;;-2.79;71.72;102006.13;5023430;28;20045;-71
2022/12/25 12:56:13;;;;;;;1.13;0.55;;;;;;;-2.77;71.30;102024.97;5021064;28;20044;-71
2022/12/25 12:58:47;;;;;;;0.85;0.68;;;;;;;-2.83;71.39;102018.63;5025002;28;20054;-71
2022/12/25 13:01:24;;;;;;;0.88;0.50;;;;;;;-2.78;71.47;102020.66;5020367;28;20045;-72
2022/12/25 13:04:21;;;;;;;1.45;0.88;;;;;;;-2.77;71.43;102024.09;5017908;28;20140;-71
2022/12/25 13:06:56;;;;;;;1.00;0.55;;;;;;;-2.78;71.19;102023.22;5024565;28;20053;-71
2022/12/25 13:09:37;;;;;;;1.17;0.55;;;;;;;-2.75;71.37;102022.50;5020713;28;20490;-71
2022/12/25 13:12:07;;;;;;;1.15;0.50;;;;;;;-2.74;71.27;102024.25;5019306;28;20135;-72
2022/12/25 13:14:36;;;;;;;1.60;0.60;;;;;;;-2.75;71.18;102023.38;5015267;28;20489;-71
2022/12/25 13:17:08;;;;;;;1.58;0.60;;;;;;;-2.77;71.28;102014.72;5021088;28;20041;-71
2022/12/25 13:19:38;;;;;;;0.82;0.40;;;;;;;-2.75;71.23;102025.06;5022438;28;20460;-71